createdAt,value
2018-05-02T00:02:15.131Z,3.00
2018-05-02T00:04:41.876Z,3.30
2018-05-02T00:07:07.856Z,4.07
2018-05-02T00:09:33.812Z,3.30
2018-05-02T00:11:59.804Z,3.87
2018-05-02T00:14:26.513Z,3.40
2018-05-02T00:16:52.496Z,3.10
2018-05-02T00:19:19.241Z,3.30
2018-05-02T00:21:45.944Z,3.57
2018-05-02T00:24:11.926Z,3.87
2018-05-02T00:26:37.881Z,3.40
2018-05-02T00:29:04.576Z,4.30
2018-05-02T00:31:30.556Z,3.90
2018-05-02T00:33:56.559Z,4.00
2018-05-02T00:36:22.529Z,3.30
2018-05-02T00:38:49.223Z,3.20
2018-05-02T00:41:15.212Z,3.90
2018-05-02T00:43:41.164Z,3.73
2018-05-02T00:46:07.885Z,3.40
2018-05-02T00:48:33.876Z,3.90
2018-05-02T00:50:59.910Z,3.80
2018-05-02T00:53:25.895Z,3.50
2018-05-02T00:55:52.648Z,3.83
2018-05-02T00:58:18.606Z,3.53
2018-05-02T01:00:45.341Z,3.60
2018-05-02T01:03:11.297Z,3.60
2018-05-02T01:05:38.028Z,3.90
2018-05-02T01:08:03.992Z,3.23
2018-05-02T01:10:30.684Z,3.13
2018-05-02T01:12:56.676Z,3.40
2018-05-02T01:15:23.398Z,4.00
2018-05-02T01:17:49.391Z,3.43
2018-05-02T01:20:15.355Z,3.87
2018-05-02T01:22:41.351Z,3.53
2018-05-02T01:25:07.335Z,3.90
2018-05-02T01:27:33.329Z,4.20
2018-05-02T01:29:59.332Z,3.40
2018-05-02T01:32:25.339Z,3.57
2018-05-02T01:34:51.309Z,3.77
2018-05-02T01:37:18.080Z,3.40
2018-05-02T01:39:44.811Z,3.60
2018-05-02T01:42:10.762Z,3.33
2018-05-02T01:44:37.463Z,4.23
2018-05-02T01:47:03.459Z,3.70
2018-05-02T01:49:30.180Z,3.60
2018-05-02T01:51:56.171Z,3.77
2018-05-02T01:54:22.115Z,3.43
2018-05-02T01:56:48.093Z,3.47
2018-05-02T01:59:14.162Z,2.93
2018-05-02T02:01:40.154Z,3.13
2018-05-02T02:04:06.102Z,2.90
2018-05-02T02:06:32.080Z,3.27
2018-05-02T02:08:58.069Z,3.70
2018-05-02T02:11:24.795Z,3.57
2018-05-02T02:13:50.791Z,3.40
2018-05-02T02:16:17.495Z,3.40
2018-05-02T02:18:43.495Z,3.50
2018-05-02T02:21:09.475Z,3.77
2018-05-02T02:23:35.468Z,3.20
2018-05-02T02:26:01.428Z,4.13
2018-05-02T02:28:27.405Z,3.77
2018-05-02T02:30:53.439Z,4.07
2018-05-02T02:33:19.402Z,4.00
2018-05-02T02:35:45.431Z,2.97
2018-05-02T02:38:12.128Z,3.63
2018-05-02T02:40:38.119Z,3.67
2018-05-02T02:43:04.806Z,3.13
2018-05-02T02:45:30.759Z,3.93
2018-05-02T02:47:56.789Z,3.93
2018-05-02T02:50:22.737Z,3.73
2018-05-02T02:52:48.688Z,3.57
2018-05-02T02:55:14.686Z,3.70
2018-05-02T02:57:40.654Z,4.20
2018-05-02T03:00:06.647Z,4.20
2018-05-02T03:02:32.604Z,4.43
2018-05-02T03:04:58.598Z,4.57
2018-05-02T03:07:25.324Z,3.67
2018-05-02T03:09:51.275Z,3.93
2018-05-02T03:12:17.996Z,4.03
2018-05-02T03:14:43.991Z,3.97
2018-05-02T03:17:09.950Z,4.10
2018-05-02T03:19:35.935Z,4.03
2018-05-02T03:22:02.623Z,4.50
2018-05-02T03:24:28.576Z,4.70
2018-05-02T03:26:54.559Z,3.67
2018-05-02T03:29:21.271Z,3.57
2018-05-02T03:31:47.274Z,3.90
2018-05-02T03:34:13.259Z,3.90
2018-05-02T03:36:39.223Z,3.77
2018-05-02T03:39:05.981Z,3.37
2018-05-02T03:41:32.681Z,3.83
2018-05-02T03:43:58.670Z,4.10
2018-05-02T03:46:25.370Z,3.70
2018-05-02T03:48:51.340Z,3.60
2018-05-02T03:51:18.200Z,3.97
2018-05-02T03:53:44.179Z,4.20
2018-05-02T03:56:10.165Z,4.37
2018-05-02T03:58:36.187Z,4.53
2018-05-02T04:01:14.435Z,5.53
2018-05-02T04:03:53.722Z,5.47
2018-05-02T04:06:25.883Z,6.17
2018-05-02T04:08:52.646Z,5.10
2018-05-02T04:11:18.602Z,5.10
2018-05-02T04:13:44.554Z,6.40
2018-05-02T04:16:10.548Z,5.70
2018-05-02T04:18:37.300Z,6.07
2018-05-02T04:21:03.231Z,5.50
2018-05-02T04:23:29.966Z,4.13
2018-05-02T04:25:55.912Z,5.03
2018-05-02T04:28:22.612Z,3.97
2018-05-02T04:30:48.659Z,4.10
2018-05-02T04:33:14.609Z,4.53
2018-05-02T04:35:40.560Z,4.73
2018-05-02T04:38:08.039Z,4.53
2018-05-02T04:40:33.997Z,4.77
2018-05-02T04:42:59.970Z,4.30
2018-05-02T04:45:25.918Z,3.90
2018-05-02T04:47:51.897Z,4.50
2018-05-02T04:50:18.631Z,4.63
2018-05-02T04:52:44.711Z,4.03
2018-05-02T04:55:10.617Z,4.30
2018-05-02T04:57:37.355Z,4.87
2018-05-02T05:00:03.302Z,5.90
2018-05-02T05:02:30.030Z,4.90
2018-05-02T05:04:56.040Z,4.97
2018-05-02T05:07:21.995Z,4.70
2018-05-02T05:09:47.977Z,4.80
2018-05-02T05:12:14.038Z,4.67
2018-05-02T05:14:39.934Z,4.00
2018-05-02T05:17:06.662Z,4.67
2018-05-02T05:19:32.615Z,4.70
2018-05-02T05:21:58.575Z,4.40
2018-05-02T05:24:24.563Z,5.50
2018-05-02T05:26:50.517Z,7.00
2018-05-02T05:29:16.503Z,5.70
2018-05-02T05:31:42.475Z,4.93
2018-05-02T05:34:09.203Z,5.23
2018-05-02T05:36:35.183Z,5.03
2018-05-02T05:39:01.891Z,4.50
2018-05-02T05:41:27.946Z,4.60
2018-05-02T05:43:53.940Z,4.00
2018-05-02T05:46:19.887Z,4.87
2018-05-02T05:48:45.834Z,4.80
2018-05-02T05:51:11.887Z,10.93
2018-05-02T05:53:38.669Z,5.80
2018-05-02T05:56:05.415Z,5.80
2018-05-02T05:58:31.389Z,5.97
2018-05-02T06:00:57.371Z,7.10
2018-05-02T06:03:23.324Z,7.53
2018-05-02T06:05:50.062Z,7.80
2018-05-02T06:08:16.051Z,6.67
2018-05-02T06:10:42.051Z,6.50
2018-05-02T06:13:08.000Z,7.20
2018-05-02T06:15:34.710Z,7.50
2018-05-02T06:18:00.708Z,7.57
2018-05-02T06:20:26.693Z,7.50
2018-05-02T06:22:52.703Z,11.47
2018-05-02T06:25:18.672Z,8.30
2018-05-02T06:27:44.700Z,6.40
2018-05-02T06:30:10.750Z,7.10
2018-05-02T06:32:36.732Z,6.30
2018-05-02T06:35:02.739Z,7.30
2018-05-02T06:37:28.747Z,7.30
2018-05-02T06:39:55.486Z,7.63
2018-05-02T06:42:22.223Z,6.83
2018-05-02T06:44:48.267Z,6.53
2018-05-02T06:47:14.279Z,6.30
2018-05-02T06:49:40.283Z,6.47
2018-05-02T06:52:06.253Z,6.90
2018-05-02T06:54:32.215Z,6.97
2018-05-02T06:56:58.947Z,6.93
2018-05-02T06:59:24.915Z,7.10
2018-05-02T07:01:52.455Z,6.70
2018-05-02T07:04:18.425Z,7.10
2018-05-02T07:06:45.164Z,6.20
2018-05-02T07:09:11.167Z,6.77
2018-05-02T07:11:37.159Z,7.07
2018-05-02T07:14:03.873Z,7.57
2018-05-02T07:16:29.859Z,7.43
2018-05-02T07:18:55.847Z,7.30
2018-05-02T07:21:21.849Z,7.30
2018-05-02T07:23:47.810Z,7.10
2018-05-02T07:26:13.810Z,7.63
2018-05-02T07:28:39.795Z,6.67
2018-05-02T07:31:05.739Z,8.17
2018-05-02T07:33:31.787Z,6.80
2018-05-02T07:35:58.531Z,6.80
2018-05-02T07:38:25.276Z,7.30
2018-05-02T07:40:51.260Z,7.40
2018-05-02T07:43:17.270Z,6.40
2018-05-02T07:45:43.300Z,7.37
2018-05-02T07:48:09.327Z,7.43
2018-05-02T07:50:35.324Z,6.80
2018-05-02T07:53:01.393Z,7.10
2018-05-02T07:55:27.409Z,7.53
2018-05-02T07:57:53.412Z,7.30
2018-05-02T08:00:20.152Z,6.67
2018-05-02T08:02:46.209Z,7.70
2018-05-02T08:05:12.936Z,6.37
2018-05-02T08:07:38.941Z,8.50
2018-05-02T08:10:04.908Z,7.10
2018-05-02T08:12:30.927Z,7.17
2018-05-02T08:14:56.927Z,6.93
2018-05-02T08:17:22.962Z,6.17
2018-05-02T08:19:48.927Z,6.23
2018-05-02T08:22:14.882Z,6.07
2018-05-02T08:24:40.882Z,4.67
2018-05-02T08:27:06.899Z,5.30
2018-05-02T08:29:32.883Z,5.40
2018-05-02T08:31:58.889Z,4.93
2018-05-02T08:34:24.875Z,5.23
2018-05-02T08:36:51.615Z,4.00
2018-05-02T08:39:17.619Z,5.60
2018-05-02T08:41:50.518Z,5.10
2018-05-02T08:44:16.494Z,5.20
2018-05-02T08:46:43.212Z,4.07
2018-05-02T08:49:09.203Z,5.27
2018-05-02T08:51:35.953Z,4.20
2018-05-02T08:54:02.697Z,4.90
2018-05-02T08:56:28.675Z,4.73
2018-05-02T08:58:54.699Z,4.40
2018-05-02T09:01:20.698Z,4.70
2018-05-02T09:03:46.712Z,5.73
2018-05-02T09:06:12.708Z,6.33
2018-05-02T09:08:38.710Z,6.23
2018-05-02T09:11:05.443Z,6.13
2018-05-02T09:13:31.464Z,6.40
2018-05-02T09:15:57.433Z,6.90
2018-05-02T09:18:23.428Z,6.53
2018-05-02T09:20:49.436Z,6.00
2018-05-02T09:23:15.423Z,6.93
2018-05-02T09:25:41.496Z,7.47
2018-05-02T09:28:07.410Z,5.97
2018-05-02T09:30:33.435Z,6.00
2018-05-02T09:32:59.395Z,5.87
2018-05-02T09:35:25.410Z,6.80
2018-05-02T09:37:51.391Z,5.47
2018-05-02T09:40:17.343Z,5.90
2018-05-02T09:42:43.346Z,5.90
2018-05-02T09:45:10.029Z,7.17
2018-05-02T09:47:36.010Z,5.73
2018-05-02T09:50:02.002Z,7.00
2018-05-02T09:52:27.968Z,6.53
2018-05-02T09:54:53.987Z,7.03
2018-05-02T09:57:19.987Z,7.10
2018-05-02T09:59:46.716Z,7.23
2018-05-02T10:02:12.687Z,7.10
2018-05-02T10:04:38.671Z,8.40
2018-05-02T10:07:04.654Z,6.60
2018-05-02T10:09:31.388Z,7.03
2018-05-02T10:11:57.363Z,5.70
2018-05-02T10:14:23.373Z,4.47
2018-05-02T10:16:50.071Z,3.67
2018-05-02T10:19:16.083Z,4.50
2018-05-02T10:21:42.076Z,3.80
2018-05-02T10:24:08.061Z,4.13
2018-05-02T10:26:34.074Z,4.20
2018-05-02T10:29:00.778Z,4.67
2018-05-02T10:31:26.774Z,3.60
2018-05-02T10:33:52.784Z,3.90
2018-05-02T10:36:19.539Z,4.00
2018-05-02T10:38:45.527Z,4.50
2018-05-02T10:41:11.529Z,3.60
2018-05-02T10:43:38.234Z,3.30
2018-05-02T10:46:04.251Z,3.90
2018-05-02T10:48:30.232Z,3.63
2018-05-02T10:50:56.229Z,4.00
2018-05-02T10:53:22.263Z,4.13
2018-05-02T10:55:48.332Z,4.70
2018-05-02T10:58:14.255Z,3.83
2018-05-02T11:00:40.205Z,3.53
2018-05-02T11:03:06.210Z,3.90
2018-05-02T11:05:32.243Z,3.70
2018-05-02T11:07:58.211Z,4.20
2018-05-02T11:10:24.274Z,3.50
2018-05-02T11:12:50.995Z,4.20
2018-05-02T11:15:16.946Z,3.50
2018-05-02T11:17:42.928Z,3.50
2018-05-02T11:20:08.891Z,3.93
2018-05-02T11:22:34.887Z,3.30
2018-05-02T11:25:01.595Z,3.27
2018-05-02T11:27:27.595Z,3.23
2018-05-02T11:29:53.642Z,3.40
2018-05-02T11:32:19.678Z,2.97
2018-05-02T11:34:45.664Z,3.77
2018-05-02T11:37:11.623Z,3.37
2018-05-02T11:39:38.411Z,2.97
2018-05-02T11:42:04.387Z,4.40
2018-05-02T11:44:30.392Z,3.90
2018-05-02T11:46:56.383Z,2.77
2018-05-02T11:49:23.178Z,3.63
2018-05-02T11:51:49.145Z,2.90
2018-05-02T11:54:15.214Z,3.03
2018-05-02T11:56:41.148Z,3.20
2018-05-02T11:59:07.884Z,3.13
2018-05-02T12:01:33.902Z,3.80
2018-05-02T12:03:59.874Z,3.10
2018-05-02T12:06:26.647Z,3.27
2018-05-02T12:08:52.684Z,3.17
2018-05-02T12:11:18.644Z,3.47
2018-05-02T12:13:44.627Z,3.53
2018-05-02T12:16:11.378Z,3.83
2018-05-02T12:18:37.399Z,3.13
2018-05-02T12:21:03.379Z,3.10
2018-05-02T12:23:29.367Z,3.30
2018-05-02T12:25:55.380Z,2.60
2018-05-02T12:28:21.413Z,3.43
2018-05-02T12:30:47.398Z,3.00
2018-05-02T12:33:13.375Z,3.03
2018-05-02T12:35:39.395Z,3.20
2018-05-02T12:38:05.347Z,3.53
2018-05-02T12:40:31.331Z,3.97
2018-05-02T12:42:57.339Z,3.50
2018-05-02T12:45:23.363Z,3.40
2018-05-02T12:47:49.317Z,2.90
2018-05-02T12:50:15.312Z,3.77
2018-05-02T12:52:41.339Z,3.20
2018-05-02T12:55:08.066Z,3.80
2018-05-02T12:57:34.771Z,2.93
2018-05-02T13:00:00.747Z,2.90
2018-05-02T13:02:26.817Z,2.73
2018-05-02T13:04:52.767Z,2.70
2018-05-02T13:07:18.723Z,3.87
2018-05-02T13:09:44.690Z,3.20
2018-05-02T13:12:10.680Z,2.70
2018-05-02T13:14:36.639Z,2.97
2018-05-02T13:17:02.652Z,3.50
2018-05-02T13:19:28.644Z,4.10
2018-05-02T13:21:54.640Z,3.70
2018-05-02T13:24:20.635Z,4.20
2018-05-02T13:26:47.407Z,2.83
2018-05-02T13:29:13.374Z,3.10
2018-05-02T13:31:39.354Z,4.10
2018-05-02T13:34:05.309Z,3.80
2018-05-02T13:36:32.051Z,3.90
2018-05-02T13:38:58.767Z,3.60
2018-05-02T13:41:24.811Z,3.33
2018-05-02T13:43:50.811Z,3.40
2018-05-02T13:46:16.807Z,3.30
2018-05-02T13:48:42.908Z,3.40
2018-05-02T13:51:08.871Z,3.43
2018-05-02T13:53:34.845Z,4.30
2018-05-02T13:56:00.840Z,3.90
2018-05-02T13:58:26.863Z,4.97
2018-05-02T14:00:52.897Z,3.57
2018-05-02T14:03:18.845Z,4.17
2018-05-02T14:05:44.795Z,3.90
2018-05-02T14:08:10.846Z,4.10
2018-05-02T14:10:36.791Z,3.70
2018-05-02T14:13:03.502Z,3.93
2018-05-02T14:15:29.518Z,4.10
2018-05-02T14:17:55.518Z,4.40
2018-05-02T14:20:22.272Z,4.50
2018-05-02T14:22:48.974Z,3.70
2018-05-02T14:25:14.934Z,3.90
2018-05-02T14:27:40.967Z,4.43
2018-05-02T14:30:06.954Z,4.03
2018-05-02T14:32:32.951Z,3.87
2018-05-02T14:34:58.914Z,3.77
2018-05-02T14:37:25.001Z,4.30
2018-05-02T14:39:50.948Z,4.13
2018-05-02T14:42:16.910Z,3.90
2018-05-02T14:44:43.627Z,4.03
2018-05-02T14:47:09.634Z,3.90
2018-05-02T14:49:35.623Z,4.63
2018-05-02T14:52:02.363Z,4.33
2018-05-02T14:54:28.395Z,3.77
2018-05-02T14:56:54.388Z,3.70
2018-05-02T14:59:20.388Z,3.83
2018-05-02T15:01:46.347Z,4.77
2018-05-02T15:04:12.355Z,5.57
2018-05-02T15:06:38.306Z,5.67
2018-05-02T15:09:05.067Z,6.17
2018-05-02T15:11:31.827Z,5.20
2018-05-02T15:13:58.507Z,4.80
2018-05-02T15:16:24.545Z,4.07
2018-05-02T15:18:50.662Z,3.93
2018-05-02T15:21:16.631Z,4.93
2018-05-02T15:23:42.635Z,4.43
2018-05-02T15:26:08.608Z,4.00
2018-05-02T15:28:34.581Z,4.60
2018-05-02T15:31:01.339Z,4.13
2018-05-02T15:33:28.029Z,4.17
2018-05-02T15:35:54.022Z,3.60
2018-05-02T15:38:20.795Z,4.20
2018-05-02T15:40:47.503Z,4.30
2018-05-02T15:43:13.451Z,4.20
2018-05-02T15:45:39.496Z,4.67
2018-05-02T15:48:05.501Z,3.33
2018-05-02T15:50:31.520Z,4.43
2018-05-02T15:52:57.480Z,3.80
2018-05-02T15:55:23.527Z,3.83
2018-05-02T15:57:49.487Z,4.27
2018-05-02T16:00:16.226Z,4.10
2018-05-02T16:02:42.191Z,4.10
2018-05-02T16:05:08.934Z,4.23
2018-05-02T16:07:35.668Z,5.10
2018-05-02T16:10:01.721Z,4.13
2018-05-02T16:12:27.619Z,3.37
2018-05-02T16:14:53.612Z,4.10
2018-05-02T16:17:20.411Z,3.67
2018-05-02T16:19:46.459Z,4.30
2018-05-02T16:22:12.487Z,4.27
2018-05-02T16:24:39.191Z,3.73
2018-05-02T16:27:05.923Z,3.70
2018-05-02T16:29:31.907Z,4.40
2018-05-02T16:31:57.926Z,3.77
2018-05-02T16:34:23.883Z,4.07
2018-05-02T16:36:49.920Z,4.10
2018-05-02T16:39:15.883Z,3.70
2018-05-02T16:41:41.875Z,3.83
2018-05-02T16:44:07.918Z,4.23
2018-05-02T16:46:33.915Z,3.83
2018-05-02T16:49:00.647Z,4.17
2018-05-02T16:51:26.614Z,3.83
2018-05-02T16:53:52.636Z,3.93
2018-05-02T16:56:18.608Z,3.93
2018-05-02T16:58:44.570Z,4.70
2018-05-02T17:01:10.559Z,3.60
2018-05-02T17:03:36.527Z,3.90
2018-05-02T17:06:02.518Z,3.47
2018-05-02T17:08:28.531Z,3.50
2018-05-02T17:10:54.535Z,3.20
2018-05-02T17:13:20.602Z,3.10
2018-05-02T17:15:46.551Z,4.87
2018-05-02T17:18:12.494Z,4.10
2018-05-02T17:20:38.497Z,4.80
2018-05-02T17:23:04.450Z,4.27
2018-05-02T17:25:30.431Z,4.30
2018-05-02T17:27:56.387Z,4.33
2018-05-02T17:30:23.166Z,3.43
2018-05-02T17:32:49.149Z,4.30
2018-05-02T17:35:15.844Z,3.60
2018-05-02T17:37:41.866Z,4.30
2018-05-02T17:40:07.895Z,4.20
2018-05-02T17:42:34.625Z,3.53
2018-05-02T17:45:00.578Z,4.30
2018-05-02T17:47:27.299Z,4.90
2018-05-02T17:49:53.291Z,4.93
2018-05-02T17:52:19.268Z,5.00
2018-05-02T17:54:45.251Z,5.67
2018-05-02T17:57:11.191Z,5.60
2018-05-02T17:59:37.211Z,4.70
2018-05-02T18:02:03.939Z,4.83
2018-05-02T18:04:29.930Z,4.23
2018-05-02T18:06:55.896Z,4.73
2018-05-02T18:09:21.927Z,4.60
2018-05-02T18:11:47.915Z,4.80
2018-05-02T18:14:14.622Z,4.80
2018-05-02T18:16:40.587Z,4.40
2018-05-02T18:19:07.323Z,4.70
2018-05-02T18:21:33.299Z,4.40
2018-05-02T18:23:59.291Z,5.13
2018-05-02T18:26:25.307Z,4.20
2018-05-02T18:28:51.333Z,5.07
2018-05-02T18:31:17.298Z,5.93
2018-05-02T18:33:43.291Z,4.80
2018-05-02T18:36:09.320Z,3.93
2018-05-02T18:38:35.311Z,5.10
2018-05-02T18:41:01.335Z,4.73
2018-05-02T18:43:27.345Z,4.30
2018-05-02T18:45:53.440Z,4.17
2018-05-02T18:48:19.600Z,5.07
2018-05-02T18:50:46.383Z,4.70
2018-05-02T18:53:12.417Z,4.80
2018-05-02T18:55:38.311Z,4.53
2018-05-02T18:58:05.051Z,4.77
2018-05-02T19:00:31.031Z,5.13
2018-05-02T19:02:57.043Z,7.33
2018-05-02T19:05:23.757Z,5.00
2018-05-02T19:07:49.830Z,4.40
2018-05-02T19:10:16.544Z,5.70
2018-05-02T19:12:42.556Z,5.70
2018-05-02T19:15:08.542Z,5.20
2018-05-02T19:17:34.549Z,4.37
2018-05-02T19:20:18.339Z,4.80
2018-05-02T19:22:44.373Z,5.90
2018-05-02T19:25:16.387Z,6.27
2018-05-02T19:27:42.339Z,5.30
2018-05-02T19:30:08.331Z,6.43
2018-05-02T19:32:40.490Z,5.70
2018-05-02T19:35:06.542Z,5.97
2018-05-02T19:37:32.511Z,5.50
2018-05-02T19:40:04.583Z,5.57
2018-05-02T19:42:37.523Z,5.27
2018-05-02T19:45:05.481Z,5.63
2018-05-02T19:47:32.211Z,5.93
2018-05-02T19:49:58.931Z,6.10
2018-05-02T19:52:31.173Z,6.03
2018-05-02T19:54:57.143Z,5.50
2018-05-02T19:57:23.121Z,6.17
2018-05-02T19:59:49.907Z,5.80
2018-05-02T20:02:22.066Z,5.90
2018-05-02T20:04:48.088Z,6.20
2018-05-02T20:07:20.947Z,6.67
2018-05-02T20:09:53.014Z,5.37
2018-05-02T20:12:25.158Z,5.70
2018-05-02T20:14:51.916Z,6.37
2018-05-02T20:17:17.904Z,6.63
2018-05-02T20:19:43.861Z,6.13
2018-05-02T20:22:09.867Z,7.53
2018-05-02T20:24:35.831Z,6.17
2018-05-02T20:27:01.852Z,7.43
2018-05-02T20:29:27.836Z,6.77
2018-05-02T20:31:53.815Z,7.13
2018-05-02T20:34:19.846Z,7.40
2018-05-02T20:36:45.830Z,6.80
2018-05-02T20:39:12.524Z,7.77
2018-05-02T20:41:38.522Z,7.20
2018-05-02T20:44:05.234Z,6.90
2018-05-02T20:46:31.273Z,7.90
2018-05-02T20:48:57.948Z,6.10
2018-05-02T20:51:24.009Z,7.47
2018-05-02T20:53:50.790Z,6.80
2018-05-02T20:56:16.743Z,7.20
2018-05-02T20:58:42.755Z,8.17
2018-05-02T21:01:08.762Z,11.47
2018-05-02T21:03:35.510Z,11.00
2018-05-02T21:06:02.196Z,9.40
2018-05-02T21:08:28.159Z,8.20
2018-05-02T21:10:54.164Z,7.03
2018-05-02T21:13:20.907Z,7.50
2018-05-02T21:15:46.916Z,6.37
2018-05-02T21:18:12.862Z,6.43
2018-05-02T21:20:39.603Z,5.77
2018-05-02T21:23:05.651Z,5.93
2018-05-02T21:25:31.683Z,5.50
2018-05-02T21:27:58.434Z,5.30
2018-05-02T21:30:24.433Z,6.73
2018-05-02T21:32:50.441Z,6.47
2018-05-02T21:35:16.395Z,5.50
2018-05-02T21:37:42.402Z,6.50
2018-05-02T21:40:09.191Z,5.50
2018-05-02T21:42:35.134Z,6.10
2018-05-02T21:45:01.121Z,5.77
2018-05-02T21:47:27.870Z,5.83
2018-05-02T21:49:53.860Z,6.00
2018-05-02T21:52:19.877Z,6.80
2018-05-02T21:54:45.851Z,6.00
2018-05-02T21:57:12.562Z,5.00
2018-05-02T21:59:38.531Z,5.40
2018-05-02T22:02:04.514Z,6.30
2018-05-02T22:04:31.243Z,7.37
2018-05-02T22:06:57.246Z,9.40
2018-05-02T22:09:23.360Z,9.00
2018-05-02T22:11:49.433Z,7.97
2018-05-02T22:14:15.391Z,9.40
2018-05-02T22:16:41.340Z,11.40
2018-05-02T22:19:08.127Z,8.00
2018-05-02T22:21:34.102Z,7.90
2018-05-02T22:24:00.095Z,7.63
2018-05-02T22:26:26.074Z,9.57
2018-05-02T22:28:52.135Z,9.40
2018-05-02T22:31:18.154Z,10.33
2018-05-02T22:33:44.132Z,8.80
2018-05-02T22:36:10.147Z,8.93
2018-05-02T22:38:36.137Z,9.50
2018-05-02T22:41:02.163Z,9.63
2018-05-02T22:43:28.163Z,12.07
2018-05-02T22:45:54.962Z,10.90
2018-05-02T22:48:21.109Z,10.30
2018-05-02T22:50:47.100Z,9.47
2018-05-02T22:53:13.840Z,9.80
2018-05-02T22:55:40.563Z,8.50
2018-05-02T22:58:07.339Z,9.33
2018-05-02T23:00:33.324Z,10.17
2018-05-02T23:02:59.330Z,11.13
2018-05-02T23:05:26.029Z,10.47
2018-05-02T23:07:52.033Z,10.40
2018-05-02T23:10:18.834Z,10.60
2018-05-02T23:12:44.799Z,10.77
2018-05-02T23:15:10.753Z,9.03
2018-05-02T23:17:37.489Z,9.70
2018-05-02T23:20:03.497Z,9.63
2018-05-02T23:22:29.515Z,10.07
2018-05-02T23:24:55.495Z,9.57
2018-05-02T23:27:21.484Z,9.97
2018-05-02T23:29:47.493Z,11.00
2018-05-02T23:32:14.196Z,9.90
2018-05-02T23:34:40.197Z,10.50
2018-05-02T23:37:06.154Z,9.17
2018-05-02T23:39:32.196Z,11.20
2018-05-02T23:41:58.187Z,10.50
2018-05-02T23:44:24.175Z,11.27
2018-05-02T23:46:50.188Z,11.63
2018-05-02T23:49:16.171Z,12.00
2018-05-02T23:51:42.147Z,11.57
2018-05-02T23:54:08.156Z,11.37
2018-05-02T23:56:34.123Z,11.40
2018-05-02T23:59:00.131Z,12.03
